sensor_id;sensor_type;location;lat;lon;timestamp;pressure;altitude;pressure_sealevel;temperature;humidity
10482;BME280;5288;42.334;23.876;2023-05-09T00:01:28;56288.56;;;-140.56;85.36
10482;BME280;5288;42.334;23.876;2023-05-09T00:03:56;56288.56;;;-140.56;85.66
10482;BME280;5288;42.334;23.876;2023-05-09T00:06:25;56302.41;;;-140.56;85.61
10482;BME280;5288;42.334;23.876;2023-05-09T00:08:52;56318.22;;;-140.56;84.90
10482;BME280;5288;42.334;23.876;2023-05-09T00:11:20;56314.25;;;-140.56;85.00
10482;BME280;5288;42.334;23.876;2023-05-09T00:13:47;56282.63;;;-140.56;84.03
10482;BME280;5288;42.334;23.876;2023-05-09T00:16:15;56304.38;;;-140.56;83.48
10482;BME280;5288;42.334;23.876;2023-05-09T00:18:43;56306.34;;;-140.56;81.88
10482;BME280;5288;42.334;23.876;2023-05-09T00:21:10;56294.50;;;-140.56;82.28
10482;BME280;5288;42.334;23.876;2023-05-09T00:23:38;56310.31;;;-140.56;81.96
10482;BME280;5288;42.334;23.876;2023-05-09T00:26:05;56288.56;;;-140.56;82.11
10482;BME280;5288;42.334;23.876;2023-05-09T00:28:32;56284.63;;;-140.56;81.64
10482;BME280;5288;42.334;23.876;2023-05-09T00:30:59;56276.72;;;-140.56;81.53
10482;BME280;5288;42.334;23.876;2023-05-09T00:33:26;56256.94;;;-140.56;80.55
10482;BME280;5288;42.334;23.876;2023-05-09T00:35:53;56310.31;;;-140.56;80.21
10482;BME280;5288;42.334;23.876;2023-05-09T00:38:21;56290.53;;;-140.56;78.94
10482;BME280;5288;42.334;23.876;2023-05-09T00:40:49;56251.03;;;-140.56;77.45
10482;BME280;5288;42.334;23.876;2023-05-09T00:43:16;56290.53;;;-140.56;76.33
10482;BME280;5288;42.334;23.876;2023-05-09T00:45:44;56270.78;;;-140.56;76.39
10482;BME280;5288;42.334;23.876;2023-05-09T00:48:11;56274.72;;;-140.56;76.96
10482;BME280;5288;42.334;23.876;2023-05-09T00:50:37;56254.97;;;-140.56;77.07
10482;BME280;5288;42.334;23.876;2023-05-09T00:53:05;56286.59;;;-140.56;76.51
10482;BME280;5288;42.334;23.876;2023-05-09T00:55:32;56264.84;;;-140.56;76.07
10482;BME280;5288;42.334;23.876;2023-05-09T00:58:02;56253.00;;;-140.56;76.21
10482;BME280;5288;42.334;23.876;2023-05-09T01:00:28;56258.94;;;-140.56;76.15
10482;BME280;5288;42.334;23.876;2023-05-09T01:02:56;56254.97;;;-140.56;75.57
10482;BME280;5288;42.334;23.876;2023-05-09T01:05:26;56254.97;;;-140.56;75.71
10482;BME280;5288;42.334;23.876;2023-05-09T01:07:59;56239.16;;;-140.56;75.35
10482;BME280;5288;42.334;23.876;2023-05-09T01:10:34;56251.03;;;-140.56;74.84
10482;BME280;5288;42.334;23.876;2023-05-09T01:13:23;56253.00;;;-140.56;74.19
10482;BME280;5288;42.334;23.876;2023-05-09T01:15:57;56245.09;;;-140.56;74.12
10482;BME280;5288;42.334;23.876;2023-05-09T01:18:36;56260.91;;;-140.56;73.54
10482;BME280;5288;42.334;23.876;2023-05-09T01:21:09;56284.63;;;-140.56;71.88
10482;BME280;5288;42.334;23.876;2023-05-09T01:24:12;56270.78;;;-140.56;73.16
10482;BME280;5288;42.334;23.876;2023-05-09T01:27:02;56254.97;;;-140.56;73.05
10482;BME280;5288;42.334;23.876;2023-05-09T01:29:36;56247.06;;;-140.56;72.86
10482;BME280;5288;42.334;23.876;2023-05-09T01:32:07;56278.69;;;-140.56;72.60
10482;BME280;5288;42.334;23.876;2023-05-09T01:34:37;56264.84;;;-140.56;72.67
10482;BME280;5288;42.334;23.876;2023-05-09T01:37:05;56298.44;;;-140.56;72.96
10482;BME280;5288;42.334;23.876;2023-05-09T01:39:33;56262.88;;;-140.56;73.72
10482;BME280;5288;42.334;23.876;2023-05-09T01:42:02;56274.72;;;-140.56;74.05
10482;BME280;5288;42.334;23.876;2023-05-09T01:44:37;56241.13;;;-140.56;73.13
10482;BME280;5288;42.334;23.876;2023-05-09T01:47:05;56254.97;;;-140.56;72.67
10482;BME280;5288;42.334;23.876;2023-05-09T01:49:34;56302.41;;;-140.56;73.25
10482;BME280;5288;42.334;23.876;2023-05-09T01:52:06;56274.72;;;-140.56;74.17
10482;BME280;5288;42.334;23.876;2023-05-09T01:54:35;56282.63;;;-140.56;74.12
10482;BME280;5288;42.334;23.876;2023-05-09T01:57:03;56215.44;;;-140.56;74.29
10482;BME280;5288;42.334;23.876;2023-05-09T01:59:32;56256.94;;;-140.56;73.38
10482;BME280;5288;42.334;23.876;2023-05-09T02:02:02;56304.38;;;-140.56;73.27
10482;BME280;5288;42.334;23.876;2023-05-09T02:04:29;56239.16;;;-140.56;73.45
10482;BME280;5288;42.334;23.876;2023-05-09T02:06:58;56290.53;;;-140.56;73.30
10482;BME280;5288;42.334;23.876;2023-05-09T02:09:26;56251.03;;;-140.56;73.01
10482;BME280;5288;42.334;23.876;2023-05-09T02:11:53;56280.66;;;-140.56;72.34
10482;BME280;5288;42.334;23.876;2023-05-09T02:14:20;56229.28;;;-140.56;71.55
10482;BME280;5288;42.334;23.876;2023-05-09T02:16:47;56235.22;;;-140.56;71.34
10482;BME280;5288;42.334;23.876;2023-05-09T02:19:16;56209.50;;;-140.56;70.50
10482;BME280;5288;42.334;23.876;2023-05-09T02:21:43;56264.84;;;-140.56;70.24
10482;BME280;5288;42.334;23.876;2023-05-09T02:24:10;56253.00;;;-140.56;71.17
10482;BME280;5288;42.334;23.876;2023-05-09T02:26:37;56276.72;;;-140.56;71.61
10482;BME280;5288;42.334;23.876;2023-05-09T02:29:05;56249.03;;;-140.56;70.41
10482;BME280;5288;42.334;23.876;2023-05-09T02:31:34;56233.22;;;-140.56;70.38
10482;BME280;5288;42.334;23.876;2023-05-09T02:34:01;56254.97;;;-140.56;70.61
10482;BME280;5288;42.334;23.876;2023-05-09T02:36:31;56260.91;;;-140.56;70.78
10482;BME280;5288;42.334;23.876;2023-05-09T02:38:59;56213.47;;;-140.56;71.07
10482;BME280;5288;42.334;23.876;2023-05-09T02:41:26;56223.34;;;-140.56;70.50
10482;BME280;5288;42.334;23.876;2023-05-09T02:43:54;56235.22;;;-140.56;70.16
10482;BME280;5288;42.334;23.876;2023-05-09T02:46:21;56231.25;;;-140.56;69.34
10482;BME280;5288;42.334;23.876;2023-05-09T02:48:47;56231.25;;;-140.56;68.35
10482;BME280;5288;42.334;23.876;2023-05-09T02:51:14;56260.91;;;-140.56;68.84
10482;BME280;5288;42.334;23.876;2023-05-09T02:53:43;56233.22;;;-140.56;68.83
10482;BME280;5288;42.334;23.876;2023-05-09T02:56:10;56231.25;;;-140.56;69.05
10482;BME280;5288;42.334;23.876;2023-05-09T02:58:37;56209.50;;;-140.56;69.51
10482;BME280;5288;42.334;23.876;2023-05-09T03:01:04;56229.28;;;-140.56;69.91
10482;BME280;5288;42.334;23.876;2023-05-09T03:03:30;56243.13;;;-140.56;70.35
10482;BME280;5288;42.334;23.876;2023-05-09T03:05:59;56264.84;;;-140.56;70.91
10482;BME280;5288;42.334;23.876;2023-05-09T03:08:25;56235.22;;;-140.56;71.13
10482;BME280;5288;42.334;23.876;2023-05-09T03:10:54;56268.81;;;-140.56;71.46
10482;BME280;5288;42.334;23.876;2023-05-09T03:13:21;56278.69;;;-140.56;71.83
10482;BME280;5288;42.334;23.876;2023-05-09T03:15:48;56256.94;;;-140.56;71.69
10482;BME280;5288;42.334;23.876;2023-05-09T03:18:15;56256.94;;;-140.56;72.09
10482;BME280;5288;42.334;23.876;2023-05-09T03:20:43;56249.03;;;-140.56;71.48
10482;BME280;5288;42.334;23.876;2023-05-09T03:23:10;56256.94;;;-140.56;70.62
10482;BME280;5288;42.334;23.876;2023-05-09T03:25:37;56258.94;;;-140.56;70.63
10482;BME280;5288;42.334;23.876;2023-05-09T03:28:05;56243.13;;;-140.56;70.61
10482;BME280;5288;42.334;23.876;2023-05-09T03:30:32;56247.06;;;-140.56;70.11
10482;BME280;5288;42.334;23.876;2023-05-09T03:32:59;56241.13;;;-140.56;70.12
10482;BME280;5288;42.334;23.876;2023-05-09T03:35:26;56243.13;;;-140.56;69.96
10482;BME280;5288;42.334;23.876;2023-05-09T03:37:53;56235.22;;;-140.56;70.33
10482;BME280;5288;42.334;23.876;2023-05-09T03:40:19;56266.81;;;-140.56;69.83
10482;BME280;5288;42.334;23.876;2023-05-09T03:42:46;56207.53;;;-140.56;69.93
10482;BME280;5288;42.334;23.876;2023-05-09T03:45:15;56258.94;;;-140.56;69.83
10482;BME280;5288;42.334;23.876;2023-05-09T03:47:42;56290.53;;;-140.56;70.42
10482;BME280;5288;42.334;23.876;2023-05-09T03:50:09;56278.69;;;-140.56;70.13
10482;BME280;5288;42.334;23.876;2023-05-09T03:52:36;56245.09;;;-140.56;70.36
10482;BME280;5288;42.334;23.876;2023-05-09T03:55:03;56254.97;;;-140.56;70.61
10482;BME280;5288;42.334;23.876;2023-05-09T03:57:33;56270.78;;;-140.56;69.36
10482;BME280;5288;42.334;23.876;2023-05-09T04:00:00;56245.09;;;-140.56;69.78
10482;BME280;5288;42.334;23.876;2023-05-09T04:02:28;56272.75;;;-140.56;69.67
10482;BME280;5288;42.334;23.876;2023-05-09T04:04:55;56247.06;;;-140.56;70.15
10482;BME280;5288;42.334;23.876;2023-05-09T04:07:22;56253.00;;;-140.56;70.80
10482;BME280;5288;42.334;23.876;2023-05-09T04:09:49;56260.91;;;-140.56;71.73
10482;BME280;5288;42.334;23.876;2023-05-09T04:12:16;56272.75;;;-140.56;71.22
10482;BME280;5288;42.334;23.876;2023-05-09T04:14:43;56239.16;;;-140.56;71.83
10482;BME280;5288;42.334;23.876;2023-05-09T04:17:10;56302.41;;;-140.56;72.78
10482;BME280;5288;42.334;23.876;2023-05-09T04:19:38;56276.72;;;-140.56;74.49
10482;BME280;5288;42.334;23.876;2023-05-09T04:22:05;56270.78;;;-140.56;75.83
10482;BME280;5288;42.334;23.876;2023-05-09T04:24:32;56247.06;;;-140.56;75.82
10482;BME280;5288;42.334;23.876;2023-05-09T04:26:59;56290.53;;;-140.56;75.95
10482;BME280;5288;42.334;23.876;2023-05-09T04:29:26;56274.72;;;-140.56;75.16
10482;BME280;5288;42.334;23.876;2023-05-09T04:31:53;56278.69;;;-140.56;75.74
10482;BME280;5288;42.334;23.876;2023-05-09T04:34:20;56272.75;;;-140.56;75.99
10482;BME280;5288;42.334;23.876;2023-05-09T04:36:49;56320.19;;;-140.56;75.60
10482;BME280;5288;42.334;23.876;2023-05-09T04:39:16;56312.28;;;-140.56;75.42
10482;BME280;5288;42.334;23.876;2023-05-09T04:41:43;56286.59;;;-140.56;75.94
10482;BME280;5288;42.334;23.876;2023-05-09T04:44:12;56290.53;;;-140.56;76.06
10482;BME280;5288;42.334;23.876;2023-05-09T04:46:39;56308.34;;;-140.56;76.90
10482;BME280;5288;42.334;23.876;2023-05-09T04:49:06;56262.88;;;-140.56;78.00
10482;BME280;5288;42.334;23.876;2023-05-09T04:51:33;56304.38;;;-140.56;77.44
10482;BME280;5288;42.334;23.876;2023-05-09T04:54:01;56274.72;;;-140.56;76.51
10482;BME280;5288;42.334;23.876;2023-05-09T04:56:29;56288.56;;;-140.56;75.32
10482;BME280;5288;42.334;23.876;2023-05-09T04:58:55;56254.97;;;-140.56;74.55
10482;BME280;5288;42.334;23.876;2023-05-09T05:01:22;56294.50;;;-140.56;73.80
10482;BME280;5288;42.334;23.876;2023-05-09T05:03:51;56286.59;;;-140.56;73.28
10482;BME280;5288;42.334;23.876;2023-05-09T05:06:17;56264.84;;;-140.56;71.96
10482;BME280;5288;42.334;23.876;2023-05-09T05:08:44;56274.72;;;-140.56;71.45
10482;BME280;5288;42.334;23.876;2023-05-09T05:11:13;56253.00;;;-140.56;72.28
10482;BME280;5288;42.334;23.876;2023-05-09T05:13:41;56256.94;;;-140.56;73.16
10482;BME280;5288;42.334;23.876;2023-05-09T05:16:08;56251.03;;;-140.56;74.00
10482;BME280;5288;42.334;23.876;2023-05-09T05:18:35;56282.63;;;-140.56;74.46
10482;BME280;5288;42.334;23.876;2023-05-09T05:21:02;56254.97;;;-140.56;74.89
10482;BME280;5288;42.334;23.876;2023-05-09T05:23:29;56286.59;;;-140.56;74.99
10482;BME280;5288;42.334;23.876;2023-05-09T05:25:56;56316.25;;;-140.56;75.17
10482;BME280;5288;42.334;23.876;2023-05-09T05:28:24;56258.94;;;-140.56;75.43
10482;BME280;5288;42.334;23.876;2023-05-09T05:30:51;56278.69;;;-140.56;75.30
10482;BME280;5288;42.334;23.876;2023-05-09T05:33:18;56270.78;;;-140.56;74.67
10482;BME280;5288;42.334;23.876;2023-05-09T05:35:45;56278.69;;;-140.56;74.63
10482;BME280;5288;42.334;23.876;2023-05-09T05:38:12;56254.97;;;-140.56;74.13
10482;BME280;5288;42.334;23.876;2023-05-09T05:40:39;56260.91;;;-140.56;74.00
10482;BME280;5288;42.334;23.876;2023-05-09T05:43:06;56280.66;;;-140.56;73.22
10482;BME280;5288;42.334;23.876;2023-05-09T05:45:34;56241.13;;;-140.56;72.92
10482;BME280;5288;42.334;23.876;2023-05-09T05:48:02;56231.25;;;-140.56;72.69
10482;BME280;5288;42.334;23.876;2023-05-09T05:50:29;56209.50;;;-140.56;72.90
10482;BME280;5288;42.334;23.876;2023-05-09T05:52:56;56270.78;;;-140.56;73.98
10482;BME280;5288;42.334;23.876;2023-05-09T05:55:23;56276.72;;;-140.56;74.65
10482;BME280;5288;42.334;23.876;2023-05-09T05:57:50;56284.63;;;-140.56;74.70
10482;BME280;5288;42.334;23.876;2023-05-09T06:00:17;56286.59;;;-140.56;74.89
10482;BME280;5288;42.334;23.876;2023-05-09T06:02:46;56280.66;;;-140.56;74.85
10482;BME280;5288;42.334;23.876;2023-05-09T06:05:13;56231.25;;;-140.56;74.61
10482;BME280;5288;42.334;23.876;2023-05-09T06:07:40;56270.78;;;-140.56;73.94
10482;BME280;5288;42.334;23.876;2023-05-09T06:10:08;56254.97;;;-140.56;73.05
10482;BME280;5288;42.334;23.876;2023-05-09T06:12:35;56296.47;;;-140.56;72.70
10482;BME280;5288;42.334;23.876;2023-05-09T06:15:03;56258.94;;;-140.56;71.81
10482;BME280;5288;42.334;23.876;2023-05-09T06:17:30;56254.97;;;-140.56;71.48
10482;BME280;5288;42.334;23.876;2023-05-09T06:19:58;56264.84;;;-140.56;71.40
10482;BME280;5288;42.334;23.876;2023-05-09T06:22:25;56260.91;;;-140.56;71.46
10482;BME280;5288;42.334;23.876;2023-05-09T06:24:52;56310.31;;;-140.56;71.78
10482;BME280;5288;42.334;23.876;2023-05-09T06:27:19;56304.38;;;-140.56;72.02
10482;BME280;5288;42.334;23.876;2023-05-09T06:29:46;56264.84;;;-140.56;72.74
10482;BME280;5288;42.334;23.876;2023-05-09T06:32:13;56290.53;;;-140.56;72.65
10482;BME280;5288;42.334;23.876;2023-05-09T06:34:43;56312.28;;;-140.56;73.35
10482;BME280;5288;42.334;23.876;2023-05-09T06:37:11;56290.53;;;-140.56;73.18
10482;BME280;5288;42.334;23.876;2023-05-09T06:39:38;56258.94;;;-140.56;72.74
10482;BME280;5288;42.334;23.876;2023-05-09T06:42:05;56270.78;;;-140.56;72.54
10482;BME280;5288;42.334;23.876;2023-05-09T06:44:32;56282.63;;;-140.56;72.66
10482;BME280;5288;42.334;23.876;2023-05-09T06:46:59;56278.69;;;-140.56;72.90
10482;BME280;5288;42.334;23.876;2023-05-09T06:49:26;56241.13;;;-140.56;72.49
10482;BME280;5288;42.334;23.876;2023-05-09T06:51:53;56258.94;;;-140.56;71.85
10482;BME280;5288;42.334;23.876;2023-05-09T06:54:21;56268.81;;;-140.56;71.75
10482;BME280;5288;42.334;23.876;2023-05-09T06:56:48;56266.81;;;-140.56;71.75
10482;BME280;5288;42.334;23.876;2023-05-09T06:59:15;56266.81;;;-140.56;71.98
10482;BME280;5288;42.334;23.876;2023-05-09T07:01:42;56245.09;;;-140.56;71.66
10482;BME280;5288;42.334;23.876;2023-05-09T07:04:09;56256.94;;;-140.56;71.83
10482;BME280;5288;42.334;23.876;2023-05-09T07:06:36;56274.72;;;-140.56;70.98
10482;BME280;5288;42.334;23.876;2023-05-09T07:09:03;56280.66;;;-140.56;72.70
10482;BME280;5288;42.334;23.876;2023-05-09T07:11:34;56294.50;;;-140.56;72.94
10482;BME280;5288;42.334;23.876;2023-05-09T07:14:01;56276.72;;;-140.56;73.40
10482;BME280;5288;42.334;23.876;2023-05-09T07:16:28;56282.63;;;-140.56;74.48
10482;BME280;5288;42.334;23.876;2023-05-09T07:18:55;56280.66;;;-140.56;74.56
10482;BME280;5288;42.334;23.876;2023-05-09T07:21:22;56308.34;;;-140.56;75.17
10482;BME280;5288;42.334;23.876;2023-05-09T07:23:49;56284.63;;;-140.56;75.70
10482;BME280;5288;42.334;23.876;2023-05-09T07:26:16;56292.53;;;-140.56;76.62
10482;BME280;5288;42.334;23.876;2023-05-09T07:28:44;56296.47;;;-140.56;77.38
10482;BME280;5288;42.334;23.876;2023-05-09T07:31:11;56298.44;;;-140.56;77.25
10482;BME280;5288;42.334;23.876;2023-05-09T07:33:38;56292.53;;;-140.56;76.82
10482;BME280;5288;42.334;23.876;2023-05-09T07:36:08;56294.50;;;-140.56;78.15
10482;BME280;5288;42.334;23.876;2023-05-09T07:38:37;56292.53;;;-140.56;78.50
10482;BME280;5288;42.334;23.876;2023-05-09T07:41:05;56316.25;;;-140.56;78.18
10482;BME280;5288;42.334;23.876;2023-05-09T07:43:32;56367.63;;;-140.56;79.23
10482;BME280;5288;42.334;23.876;2023-05-09T07:46:00;56351.81;;;-140.56;79.81
10482;BME280;5288;42.334;23.876;2023-05-09T07:48:27;56296.47;;;-140.56;78.72
10482;BME280;5288;42.334;23.876;2023-05-09T07:50:54;56339.94;;;-140.56;78.89
10482;BME280;5288;42.334;23.876;2023-05-09T07:53:21;56292.53;;;-140.56;79.75
10482;BME280;5288;42.334;23.876;2023-05-09T07:55:48;56339.94;;;-140.56;78.94
10482;BME280;5288;42.334;23.876;2023-05-09T07:58:15;56341.94;;;-140.56;78.60
10482;BME280;5288;42.334;23.876;2023-05-09T08:00:42;56332.03;;;-140.56;78.68
10482;BME280;5288;42.334;23.876;2023-05-09T08:03:10;56322.16;;;-140.56;78.14
10482;BME280;5288;42.334;23.876;2023-05-09T08:05:37;56343.91;;;-140.56;79.00
10482;BME280;5288;42.334;23.876;2023-05-09T08:08:04;56310.31;;;-140.56;78.88
10482;BME280;5288;42.334;23.876;2023-05-09T08:10:32;56361.69;;;-140.56;77.18
10482;BME280;5288;42.334;23.876;2023-05-09T08:12:59;56302.41;;;-140.56;78.14
10482;BME280;5288;42.334;23.876;2023-05-09T08:15:26;56288.56;;;-140.56;78.47
10482;BME280;5288;42.334;23.876;2023-05-09T08:17:53;56316.25;;;-140.56;77.71
10482;BME280;5288;42.334;23.876;2023-05-09T08:20:21;56316.25;;;-140.56;78.62
10482;BME280;5288;42.334;23.876;2023-05-09T08:22:48;56318.22;;;-140.56;78.37
10482;BME280;5288;42.334;23.876;2023-05-09T08:25:15;56357.75;;;-140.56;78.04
10482;BME280;5288;42.334;23.876;2023-05-09T08:27:42;56320.19;;;-140.56;78.21
10482;BME280;5288;42.334;23.876;2023-05-09T08:30:10;56334.03;;;-140.56;78.19
10482;BME280;5288;42.334;23.876;2023-05-09T08:32:38;56324.13;;;-140.56;78.77
10482;BME280;5288;42.334;23.876;2023-05-09T08:35:05;56322.16;;;-140.56;78.84
10482;BME280;5288;42.334;23.876;2023-05-09T08:37:35;56349.84;;;-140.56;78.02
10482;BME280;5288;42.334;23.876;2023-05-09T08:40:02;56318.22;;;-140.56;78.01
10482;BME280;5288;42.334;23.876;2023-05-09T08:42:32;56332.03;;;-140.56;77.43
10482;BME280;5288;42.334;23.876;2023-05-09T08:44:59;56334.03;;;-140.56;77.11
10482;BME280;5288;42.334;23.876;2023-05-09T08:47:27;56310.31;;;-140.56;77.33
10482;BME280;5288;42.334;23.876;2023-05-09T08:49:55;56310.31;;;-140.56;77.06
10482;BME280;5288;42.334;23.876;2023-05-09T08:52:22;56304.38;;;-140.56;77.03
10482;BME280;5288;42.334;23.876;2023-05-09T08:54:50;56314.25;;;-140.56;77.34
10482;BME280;5288;42.334;23.876;2023-05-09T08:57:17;56343.91;;;-140.56;78.04
10482;BME280;5288;42.334;23.876;2023-05-09T08:59:45;56316.25;;;-140.56;78.85
10482;BME280;5288;42.334;23.876;2023-05-09T09:02:13;56347.84;;;-140.56;78.52
10482;BME280;5288;42.334;23.876;2023-05-09T09:04:40;56318.22;;;-140.56;78.40
10482;BME280;5288;42.334;23.876;2023-05-09T09:07:10;56314.25;;;-140.56;78.41
10482;BME280;5288;42.334;23.876;2023-05-09T09:09:38;56339.94;;;-140.56;78.27
10482;BME280;5288;42.334;23.876;2023-05-09T09:12:11;56326.13;;;-140.56;78.77
10482;BME280;5288;42.334;23.876;2023-05-09T09:14:42;56343.91;;;-140.56;79.71
10482;BME280;5288;42.334;23.876;2023-05-09T09:17:17;56330.06;;;-140.56;80.00
10482;BME280;5288;42.334;23.876;2023-05-09T09:19:48;56337.97;;;-140.56;80.10
10482;BME280;5288;42.334;23.876;2023-05-09T09:22:17;56343.91;;;-140.56;80.22
10482;BME280;5288;42.334;23.876;2023-05-09T09:24:45;56320.19;;;-140.56;79.31
10482;BME280;5288;42.334;23.876;2023-05-09T09:27:14;56316.25;;;-140.56;78.61
10482;BME280;5288;42.334;23.876;2023-05-09T09:29:41;56373.56;;;-140.56;78.07
10482;BME280;5288;42.334;23.876;2023-05-09T09:32:08;56343.91;;;-140.56;77.85
10482;BME280;5288;42.334;23.876;2023-05-09T09:34:35;56330.06;;;-140.56;78.93
10482;BME280;5288;42.334;23.876;2023-05-09T09:37:02;56343.91;;;-140.56;79.45
10482;BME280;5288;42.334;23.876;2023-05-09T09:39:30;56316.25;;;-140.56;80.47
10482;BME280;5288;42.334;23.876;2023-05-09T09:42:08;56324.13;;;-140.56;79.57
10482;BME280;5288;42.334;23.876;2023-05-09T09:44:37;56343.91;;;-140.56;79.08
10482;BME280;5288;42.334;23.876;2023-05-09T09:47:08;56304.38;;;-140.56;78.67
10482;BME280;5288;42.334;23.876;2023-05-09T09:49:35;56310.31;;;-140.56;78.94
10482;BME280;5288;42.334;23.876;2023-05-09T09:52:02;56326.13;;;-140.56;78.52
10482;BME280;5288;42.334;23.876;2023-05-09T09:54:30;56316.25;;;-140.56;79.31
10482;BME280;5288;42.334;23.876;2023-05-09T09:56:57;56328.09;;;-140.56;78.84
10482;BME280;5288;42.334;23.876;2023-05-09T09:59:25;56332.03;;;-140.56;79.04
10482;BME280;5288;42.334;23.876;2023-05-09T10:01:58;56320.19;;;-140.56;79.26
10482;BME280;5288;42.334;23.876;2023-05-09T10:04:27;56314.25;;;-140.56;79.86
10482;BME280;5288;42.334;23.876;2023-05-09T10:06:56;56355.75;;;-140.56;80.58
10482;BME280;5288;42.334;23.876;2023-05-09T10:09:24;56286.59;;;-140.56;80.65
10482;BME280;5288;42.334;23.876;2023-05-09T10:11:52;56361.69;;;-140.56;80.33
10482;BME280;5288;42.334;23.876;2023-05-09T10:14:21;56324.13;;;-140.56;80.84
10482;BME280;5288;42.334;23.876;2023-05-09T10:16:49;56322.16;;;-140.56;82.01
10482;BME280;5288;42.334;23.876;2023-05-09T10:19:19;56379.47;;;-140.56;82.76
10482;BME280;5288;42.334;23.876;2023-05-09T10:21:50;56383.44;;;-140.56;82.75
10482;BME280;5288;42.334;23.876;2023-05-09T10:24:23;56379.47;;;-140.56;82.89
10482;BME280;5288;42.334;23.876;2023-05-09T10:27:00;56391.34;;;-140.56;81.90
10482;BME280;5288;42.334;23.876;2023-05-09T10:29:33;56330.06;;;-140.56;82.55
10482;BME280;5288;42.334;23.876;2023-05-09T10:32:04;56345.88;;;-140.56;82.45
10482;BME280;5288;42.334;23.876;2023-05-09T10:34:39;56316.25;;;-140.56;82.45
10482;BME280;5288;42.334;23.876;2023-05-09T10:37:07;56320.19;;;-140.56;82.18
10482;BME280;5288;42.334;23.876;2023-05-09T10:39:35;56334.03;;;-140.56;81.87
10482;BME280;5288;42.334;23.876;2023-05-09T10:42:03;56316.25;;;-140.56;80.35
10482;BME280;5288;42.334;23.876;2023-05-09T10:44:32;56337.97;;;-140.56;79.31
10482;BME280;5288;42.334;23.876;2023-05-09T10:46:59;56336.00;;;-140.56;78.84
10482;BME280;5288;42.334;23.876;2023-05-09T10:49:27;56330.06;;;-140.56;78.44
10482;BME280;5288;42.334;23.876;2023-05-09T10:51:56;56312.28;;;-140.56;78.57
10482;BME280;5288;42.334;23.876;2023-05-09T10:54:27;56290.53;;;-140.56;77.80
10482;BME280;5288;42.334;23.876;2023-05-09T10:56:56;56306.34;;;-140.56;77.80
10482;BME280;5288;42.334;23.876;2023-05-09T10:59:34;56337.97;;;-140.56;78.38
10482;BME280;5288;42.334;23.876;2023-05-09T11:02:06;56310.31;;;-140.56;77.63
10482;BME280;5288;42.334;23.876;2023-05-09T11:04:37;56330.06;;;-140.56;77.81
10482;BME280;5288;42.334;23.876;2023-05-09T11:07:21;56316.25;;;-140.56;77.60
10482;BME280;5288;42.334;23.876;2023-05-09T11:09:50;56310.31;;;-140.56;77.05
10482;BME280;5288;42.334;23.876;2023-05-09T11:12:19;56343.91;;;-140.56;77.75
10482;BME280;5288;42.334;23.876;2023-05-09T11:14:48;56336.00;;;-140.56;78.00
10482;BME280;5288;42.334;23.876;2023-05-09T11:17:27;56357.75;;;-140.56;78.01
10482;BME280;5288;42.334;23.876;2023-05-09T11:19:57;56341.94;;;-140.56;77.95
10482;BME280;5288;42.334;23.876;2023-05-09T11:22:26;56339.94;;;-140.56;78.47
10482;BME280;5288;42.334;23.876;2023-05-09T11:25:03;56328.09;;;-140.56;77.43
10482;BME280;5288;42.334;23.876;2023-05-09T11:27:37;56322.16;;;-140.56;77.08
10482;BME280;5288;42.334;23.876;2023-05-09T11:30:06;56320.19;;;-140.56;78.06
10482;BME280;5288;42.334;23.876;2023-05-09T11:32:40;56286.59;;;-140.56;77.63
10482;BME280;5288;42.334;23.876;2023-05-09T11:35:09;56332.03;;;-140.56;76.88
10482;BME280;5288;42.334;23.876;2023-05-09T11:37:51;56334.03;;;-140.56;75.86
10482;BME280;5288;42.334;23.876;2023-05-09T11:40:21;56334.03;;;-140.56;75.71
10482;BME280;5288;42.334;23.876;2023-05-09T11:42:49;56328.09;;;-140.56;74.11
10482;BME280;5288;42.334;23.876;2023-05-09T11:45:18;56318.22;;;-140.56;74.84
10482;BME280;5288;42.334;23.876;2023-05-09T11:47:46;56312.28;;;-140.56;74.92
10482;BME280;5288;42.334;23.876;2023-05-09T11:50:14;56316.25;;;-140.56;75.42
10482;BME280;5288;42.334;23.876;2023-05-09T11:52:47;56302.41;;;-140.56;75.76
10482;BME280;5288;42.334;23.876;2023-05-09T11:55:17;56337.97;;;-140.56;74.15
10482;BME280;5288;42.334;23.876;2023-05-09T11:57:49;56306.34;;;-140.56;75.75
10482;BME280;5288;42.334;23.876;2023-05-09T12:00:17;56343.91;;;-140.56;76.51
10482;BME280;5288;42.334;23.876;2023-05-09T12:02:44;56330.06;;;-140.56;77.85
10482;BME280;5288;42.334;23.876;2023-05-09T12:05:14;56383.44;;;-140.56;78.40
10482;BME280;5288;42.334;23.876;2023-05-09T12:07:42;56304.38;;;-140.56;78.90
10482;BME280;5288;42.334;23.876;2023-05-09T12:10:13;56302.41;;;-140.56;78.50
10482;BME280;5288;42.334;23.876;2023-05-09T12:12:45;56341.94;;;-140.56;77.93
10482;BME280;5288;42.334;23.876;2023-05-09T12:15:13;56347.84;;;-140.56;76.58
10482;BME280;5288;42.334;23.876;2023-05-09T12:17:42;56298.44;;;-140.56;75.80
10482;BME280;5288;42.334;23.876;2023-05-09T12:20:10;56339.94;;;-140.56;75.86
10482;BME280;5288;42.334;23.876;2023-05-09T12:22:37;56300.44;;;-140.56;75.69
10482;BME280;5288;42.334;23.876;2023-05-09T12:25:06;56306.34;;;-140.56;75.92
10482;BME280;5288;42.334;23.876;2023-05-09T12:27:34;56357.75;;;-140.56;77.13
10482;BME280;5288;42.334;23.876;2023-05-09T12:30:04;56310.31;;;-140.56;77.49
10482;BME280;5288;42.334;23.876;2023-05-09T12:32:33;56326.13;;;-140.56;79.02
10482;BME280;5288;42.334;23.876;2023-05-09T12:35:06;56367.63;;;-140.56;79.28
10482;BME280;5288;42.334;23.876;2023-05-09T12:37:33;56349.84;;;-140.56;80.45
10482;BME280;5288;42.334;23.876;2023-05-09T12:40:01;56365.66;;;-140.56;80.21
10482;BME280;5288;42.334;23.876;2023-05-09T12:42:29;56345.88;;;-140.56;80.16
10482;BME280;5288;42.334;23.876;2023-05-09T12:45:00;56365.66;;;-140.56;79.65
10482;BME280;5288;42.334;23.876;2023-05-09T12:47:31;56341.94;;;-140.56;80.30